Time;durP1;ratioP1;P1;durP2;ratioP2;P2;SDS_P1;SDS_P2;PMS_P1;PMS_P2;Temp;Humidity;BMP_temperature;BMP_pressure;BME280_temperature;BME280_humidity;BME280_pressure;Samples;Min_cycle;Max_cycle;Signal;HPM_P1;HPM_P2
2023/10/18 00:01:00;;;;;;;47.13;22.07;;;4.10;58.70;;;;;;5021988;28;46457;-71
2023/10/18 00:03:30;;;;;;;48.88;22.35;;;4.10;58.70;;;;;;5021930;28;46565;-71
2023/10/18 00:06:07;;;;;;;40.17;22.20;;;4.10;58.60;;;;;;5020402;28;46814;-71
2023/10/18 00:08:33;;;;;;;47.77;21.20;;;4.10;58.80;;;;;;5019580;28;46450;-71
2023/10/18 00:11:00;;;;;;;46.73;21.80;;;4.10;58.80;;;;;;5022271;28;47231;-71
2023/10/18 00:13:25;;;;;;;45.60;22.33;;;4.10;58.70;;;;;;5021312;28;45881;-71
2023/10/18 00:15:53;;;;;;;50.03;22.80;;;4.10;58.70;;;;;;4996293;28;46303;-71
2023/10/18 00:18:21;;;;;;;43.57;23.63;;;4.00;58.70;;;;;;5020837;28;46568;-71
2023/10/18 00:20:47;;;;;;;43.97;21.43;;;4.00;58.70;;;;;;5018491;28;47339;-72
2023/10/18 00:23:14;;;;;;;40.57;21.43;;;4.00;58.80;;;;;;5016645;28;46537;-71
2023/10/18 00:25:39;;;;;;;49.50;21.40;;;4.00;58.60;;;;;;5021062;28;46441;-71
2023/10/18 00:28:05;;;;;;;41.97;20.70;;;4.00;58.80;;;;;;5018190;28;46617;-70
2023/10/18 00:30:31;;;;;;;45.50;21.30;;;4.00;58.90;;;;;;5020763;28;46404;-71
2023/10/18 00:32:57;;;;;;;46.00;20.87;;;3.90;57.70;;;;;;5021353;28;46447;-70
2023/10/18 00:35:29;;;;;;;42.20;19.80;;;3.90;58.80;;;;;;5020852;28;46686;-70
2023/10/18 00:37:54;;;;;;;40.63;20.67;;;3.90;58.90;;;;;;5017896;28;46399;-71
2023/10/18 00:43:04;;;;;;;41.73;21.43;;;3.80;59.00;;;;;;5018833;28;46393;-70
2023/10/18 00:45:31;;;;;;;42.53;20.67;;;3.80;59.20;;;;;;5020707;28;45898;-71
2023/10/18 00:47:57;;;;;;;40.43;20.80;;;3.70;59.40;;;;;;5021056;28;46433;-70
2023/10/18 00:50:27;;;;;;;45.73;21.73;;;3.60;59.80;;;;;;5019551;28;47143;-71
2023/10/18 00:52:53;;;;;;;42.70;22.50;;;3.60;58.90;;;;;;5016429;28;46410;-71
2023/10/18 00:55:19;;;;;;;43.70;21.73;;;3.60;60.00;;;;;;5018607;28;46417;-71
2023/10/18 00:57:47;;;;;;;44.57;21.00;;;3.70;59.70;;;;;;5003893;28;45885;-70
2023/10/18 01:00:19;;;;;;;44.87;22.23;;;3.70;59.50;;;;;;5017040;28;46922;-70
2023/10/18 01:02:48;;;;;;;47.97;20.75;;;3.70;59.70;;;;;;5015778;28;46371;-70
2023/10/18 01:05:14;;;;;;;44.58;20.58;;;3.70;59.70;;;;;;5018803;28;45822;-70
2023/10/18 01:07:42;;;;;;;45.57;21.07;;;3.60;59.70;;;;;;5019788;28;46379;-70
2023/10/18 01:10:09;;;;;;;43.30;22.03;;;3.60;59.60;;;;;;5021438;28;47347;-70
2023/10/18 01:12:35;;;;;;;43.70;21.27;;;3.60;60.00;;;;;;5019577;28;46422;-71
2023/10/18 01:15:02;;;;;;;48.60;22.27;;;3.50;59.90;;;;;;5019314;28;46410;-71
2023/10/18 01:17:28;;;;;;;43.77;21.87;;;3.50;60.00;;;;;;5018855;28;46445;-70
2023/10/18 01:19:53;;;;;;;50.70;22.43;;;3.50;59.90;;;;;;5020781;28;46453;-70
2023/10/18 01:22:19;;;;;;;35.20;19.77;;;3.50;59.90;;;;;;5021016;28;46435;-69
2023/10/18 01:24:46;;;;;;;49.30;22.27;;;3.50;59.90;;;;;;5020221;28;46418;-71
2023/10/18 01:27:12;;;;;;;41.40;20.60;;;3.50;59.90;;;;;;5023430;28;46395;-71
2023/10/18 01:29:38;;;;;;;44.50;20.80;;;3.40;59.80;;;;;;5023430;28;47056;-71
2023/10/18 01:32:04;;;;;;;55.33;22.50;;;3.40;59.80;;;;;;5021831;28;46386;-71
2023/10/18 01:34:31;;;;;;;44.30;21.27;;;3.40;59.80;;;;;;5021891;28;45820;-71
2023/10/18 01:36:58;;;;;;;46.63;21.03;;;3.30;59.80;;;;;;5004149;28;46364;-72
2023/10/18 01:39:28;;;;;;;44.13;21.80;;;3.30;60.10;;;;;;5022947;28;46443;-71
2023/10/18 01:41:55;;;;;;;46.25;21.70;;;3.30;60.20;;;;;;5024014;28;45840;-70
2023/10/18 01:44:27;;;;;;;45.40;21.07;;;3.30;60.00;;;;;;5024019;28;46449;-71
2023/10/18 01:46:55;;;;;;;42.70;20.83;;;3.30;60.00;;;;;;5022395;28;46346;-71
2023/10/18 01:49:25;;;;;;;43.23;22.00;;;3.30;60.10;;;;;;5020528;28;46747;-71
2023/10/18 01:51:54;;;;;;;50.83;24.80;;;3.20;60.10;;;;;;5021051;28;46469;-71
2023/10/18 01:54:24;;;;;;;45.30;22.55;;;3.20;60.00;;;;;;5023256;28;46365;-71
2023/10/18 01:56:51;;;;;;;48.77;23.73;;;3.40;60.30;;;;;;5020890;28;45971;-71
2023/10/18 01:59:17;;;;;;;44.90;22.30;;;3.30;60.10;;;;;;5022035;28;46423;-71
2023/10/18 02:01:53;;;;;;;56.03;23.90;;;3.30;59.70;;;;;;5020722;28;45903;-71
2023/10/18 02:04:25;;;;;;;49.92;23.85;;;3.40;59.80;;;;;;5022794;28;46372;-71
2023/10/18 02:06:57;;;;;;;58.53;24.47;;;3.50;60.00;;;;;;5024710;28;46390;-71
2023/10/18 02:09:26;;;;;;;55.80;25.60;;;3.60;60.00;;;;;;5021523;28;47046;-71
2023/10/18 02:11:52;;;;;;;50.05;23.90;;;3.60;60.00;;;;;;5024079;28;46408;-72
2023/10/18 02:14:18;;;;;;;61.63;26.03;;;3.60;59.80;;;;;;5005096;28;46503;-71
2023/10/18 02:16:45;;;;;;;88.53;26.20;;;3.70;59.70;;;;;;5023764;28;46355;-72
2023/10/18 02:19:13;;;;;;;73.73;25.73;;;3.70;59.50;;;;;;5021144;28;46482;-71
2023/10/18 02:21:40;;;;;;;61.40;25.73;;;3.80;59.50;;;;;;5018596;28;46489;-71
2023/10/18 02:24:07;;;;;;;66.90;26.07;;;3.80;59.60;;;;;;5020258;28;46343;-71
2023/10/18 02:26:33;;;;;;;67.10;27.07;;;3.90;59.40;;;;;;5019501;28;46664;-72
2023/10/18 02:29:05;;;;;;;80.30;26.53;;;3.90;59.50;;;;;;5021041;28;47238;-71
2023/10/18 02:31:33;;;;;;;65.00;23.98;;;3.90;59.50;;;;;;5021653;28;46497;-71
2023/10/18 02:33:58;;;;;;;53.10;26.10;;;4.00;59.70;;;;;;5022798;28;46791;-71
2023/10/18 02:36:32;;;;;;;70.40;26.97;;;4.10;59.50;;;;;;5022710;28;46497;-71
2023/10/18 02:38:59;;;;;;;59.63;26.10;;;4.10;59.10;;;;;;5021477;28;48038;-71
2023/10/18 02:41:28;;;;;;;58.20;25.58;;;4.20;59.20;;;;;;5021093;28;46410;-71
2023/10/18 02:43:54;;;;;;;62.63;26.77;;;4.20;59.20;;;;;;5017499;28;46434;-71
2023/10/18 02:46:24;;;;;;;69.83;24.23;;;4.20;59.00;;;;;;5017901;28;46787;-71
2023/10/18 02:48:56;;;;;;;73.87;27.20;;;4.20;59.20;;;;;;5020228;28;46383;-71
2023/10/18 02:51:24;;;;;;;63.47;25.80;;;4.20;59.20;;;;;;5020468;28;47035;-71
2023/10/18 02:54:40;;;;;;;73.10;26.53;;;4.30;59.50;;;;;;5019985;28;46450;-69
2023/10/18 02:56:41;;;;;;;65.70;25.27;;;4.30;59.30;;;;;;5007846;28;46596;-68
2023/10/18 02:59:07;;;;;;;80.53;25.63;;;4.30;58.50;;;;;;5018947;28;46289;-68
2023/10/18 03:01:44;;;;;;;68.57;26.10;;;4.30;59.50;;;;;;5020580;28;46239;-70
2023/10/18 03:04:14;;;;;;;67.27;26.30;;;4.40;59.20;;;;;;5021247;28;46426;-68
2023/10/18 03:06:41;;;;;;;70.00;23.63;;;4.40;59.00;;;;;;5024350;28;46420;-69
2023/10/18 03:11:53;;;;;;;89.10;23.93;;;4.50;58.90;;;;;;5020242;28;46410;-69
2023/10/18 03:14:23;;;;;;;81.47;23.47;;;4.50;58.80;;;;;;5022080;28;46481;-70
2023/10/18 03:16:49;;;;;;;68.33;22.97;;;4.50;58.80;;;;;;5019430;28;46634;-69
2023/10/18 03:19:17;;;;;;;59.20;22.47;;;4.50;58.90;;;;;;5019412;28;47173;-69
2023/10/18 03:21:48;;;;;;;72.95;23.25;;;4.50;58.80;;;;;;5021796;28;46401;-69
2023/10/18 03:24:14;;;;;;;59.13;22.90;;;4.60;58.90;;;;;;5021687;28;46499;-70
2023/10/18 03:26:41;;;;;;;50.80;24.07;;;4.60;58.70;;;;;;5021552;28;46501;-69
2023/10/18 03:29:12;;;;;;;47.63;22.47;;;4.70;59.80;;;;;;5022632;28;46387;-70
2023/10/18 03:31:47;;;;;;;56.17;23.70;;;4.80;58.50;;;;;;5019690;28;46374;-69
2023/10/18 03:34:18;;;;;;;47.73;21.63;;;4.80;58.30;;;;;;5018727;28;46510;-69
2023/10/18 03:36:53;;;;;;;51.10;22.37;;;4.80;58.20;;;;;;5019193;28;46664;-68
2023/10/18 03:39:20;;;;;;;65.10;19.97;;;4.90;58.20;;;;;;5021016;28;47031;-68
2023/10/18 03:41:49;;;;;;;60.13;20.23;;;4.80;58.40;;;;;;5018539;28;46469;-67
2023/10/18 03:44:14;;;;;;;65.30;19.80;;;4.80;59.00;;;;;;5019794;28;46238;-70
2023/10/18 03:46:49;;;;;;;59.97;19.60;;;4.60;59.20;;;;;;5019895;28;46330;-70
2023/10/18 03:49:40;;;;;;;86.10;21.13;;;4.60;59.40;;;;;;5021530;28;47387;-69
2023/10/18 03:54:47;;;;;;;77.53;20.93;;;4.70;59.30;;;;;;4996868;28;46494;-70
2023/10/18 03:57:19;;;;;;;57.20;19.67;;;4.70;59.20;;;;;;5019239;28;46432;-68
2023/10/18 03:59:48;;;;;;;78.63;20.90;;;4.70;59.10;;;;;;5016753;28;47142;-69
2023/10/18 04:04:48;;;;;;;50.43;20.20;;;4.70;58.70;;;;;;5019264;28;46535;-69
2023/10/18 04:07:19;;;;;;;73.77;21.20;;;4.80;58.90;;;;;;5020204;28;46225;-68
2023/10/18 04:12:19;;;;;;;76.17;20.33;;;4.80;58.70;;;;;;5021182;28;45854;-68
2023/10/18 04:15:01;;;;;;;61.87;20.93;;;4.80;58.70;;;;;;5020275;28;45848;-68
2023/10/18 04:17:38;;;;;;;116.03;21.43;;;4.90;58.80;;;;;;5018121;28;46511;-71
2023/10/18 04:22:38;;;;;;;173.80;24.17;;;4.70;59.50;;;;;;5021422;28;46525;-72
2023/10/18 04:25:14;;;;;;;72.57;19.00;;;4.70;59.40;;;;;;5018960;28;46492;-69
2023/10/18 04:27:40;;;;;;;149.50;21.10;;;4.50;60.00;;;;;;5019538;28;46497;-71
2023/10/18 04:30:06;;;;;;;83.80;20.60;;;4.30;60.50;;;;;;5019116;28;47085;-70
2023/10/18 04:32:32;;;;;;;107.20;21.00;;;4.30;60.50;;;;;;5016953;28;46421;-68
2023/10/18 04:34:59;;;;;;;145.33;20.23;;;4.30;60.60;;;;;;5019809;28;46719;-71
2023/10/18 04:37:26;;;;;;;155.90;21.37;;;4.30;60.50;;;;;;5020033;28;46374;-70
2023/10/18 04:39:53;;;;;;;55.63;19.90;;;4.30;60.50;;;;;;5019405;28;46522;-69
2023/10/18 04:42:18;;;;;;;114.63;21.33;;;4.30;60.50;;;;;;5019466;28;46664;-67
2023/10/18 04:44:49;;;;;;;85.50;20.37;;;4.40;60.50;;;;;;5019766;28;46434;-66
2023/10/18 04:47:14;;;;;;;70.03;21.47;;;4.40;60.00;;;;;;5019279;28;46484;-68
2023/10/18 04:49:50;;;;;;;83.73;21.10;;;4.50;60.80;;;;;;5015931;28;46338;-67
2023/10/18 04:52:28;;;;;;;74.63;21.20;;;4.50;59.60;;;;;;5018758;28;45865;-68
2023/10/18 04:55:00;;;;;;;130.00;25.40;;;4.50;59.40;;;;;;5019938;28;46452;-67
2023/10/18 04:57:26;;;;;;;77.67;23.50;;;4.40;59.90;;;;;;5017684;28;46450;-67
2023/10/18 04:59:59;;;;;;;50.50;23.23;;;4.30;60.20;;;;;;5018554;28;47171;-67
2023/10/18 05:02:29;;;;;;;56.43;21.30;;;4.40;60.00;;;;;;5018498;28;46570;-68
2023/10/18 05:04:57;;;;;;;65.70;19.37;;;4.60;59.40;;;;;;5019535;28;46497;-68
2023/10/18 05:07:40;;;;;;;55.40;20.90;;;4.60;59.10;;;;;;5020253;28;45881;-68
2023/10/18 05:10:17;;;;;;;118.67;20.33;;;4.60;59.30;;;;;;5019026;28;46422;-66
2023/10/18 05:12:48;;;;;;;98.07;21.03;;;4.40;59.80;;;;;;5016785;28;46509;-67
2023/10/18 05:15:29;;;;;;;51.83;19.20;;;4.20;60.40;;;;;;5002768;28;46795;-67
2023/10/18 05:18:15;;;;;;;55.63;19.17;;;4.10;60.30;;;;;;5019120;28;46649;-68
2023/10/18 05:20:47;;;;;;;73.67;20.27;;;4.10;60.30;;;;;;5020107;28;46256;-67
2023/10/18 05:23:22;;;;;;;66.93;18.80;;;4.10;60.30;;;;;;5019681;28;46553;-65
2023/10/18 05:25:53;;;;;;;72.77;18.67;;;4.20;60.50;;;;;;5019198;28;46375;-66
2023/10/18 05:28:24;;;;;;;63.83;18.43;;;4.20;60.20;;;;;;5020395;28;46494;-66
2023/10/18 05:38:48;;;;;;;50.30;18.10;;;4.20;60.20;;;;;;5018306;28;46497;-67
2023/10/18 05:42:03;;;;;;;43.17;17.90;;;4.20;60.60;;;;;;5018422;28;46495;-68
2023/10/18 05:44:06;;;;;;;84.27;20.97;;;4.30;59.80;;;;;;5000789;28;46232;-66
2023/10/18 05:46:32;;;;;;;71.10;18.20;;;4.30;59.60;;;;;;5018760;28;46672;-65
2023/10/18 05:49:00;;;;;;;56.13;19.20;;;4.20;60.00;;;;;;5022425;28;46459;-66
2023/10/18 05:53:52;;;;;;;67.30;20.90;;;4.30;60.00;;;;;;5020251;28;46567;-66
2023/10/18 05:56:24;;;;;;;37.37;18.70;;;4.40;59.80;;;;;;5019187;28;46829;-67
2023/10/18 05:59:25;;;;;;;41.40;17.73;;;4.50;59.60;;;;;;5018460;28;46445;-68
2023/10/18 06:01:38;;;;;;;37.97;16.27;;;4.50;60.40;;;;;;5019766;28;46737;-68
2023/10/18 06:04:04;;;;;;;33.57;17.63;;;4.60;59.10;;;;;;5020044;28;46486;-66
2023/10/18 06:06:30;;;;;;;41.53;17.43;;;4.60;59.10;;;;;;5019639;28;45839;-66
2023/10/18 06:08:58;;;;;;;67.63;16.10;;;4.70;58.90;;;;;;5018204;28;46565;-66
2023/10/18 06:11:25;;;;;;;35.47;16.97;;;4.60;58.90;;;;;;5019345;28;46461;-66
2023/10/18 06:13:52;;;;;;;33.75;17.02;;;4.70;59.20;;;;;;5022882;28;46446;-65
2023/10/18 06:16:18;;;;;;;37.80;15.43;;;4.70;58.80;;;;;;5021211;28;46433;-65
2023/10/18 06:18:48;;;;;;;27.70;16.67;;;4.80;58.80;;;;;;5022457;28;46370;-67
2023/10/18 06:21:20;;;;;;;41.83;17.10;;;4.80;58.40;;;;;;5021096;28;46459;-67
2023/10/18 06:23:55;;;;;;;34.22;17.63;;;4.90;58.60;;;;;;5021400;28;46485;-68
2023/10/18 06:26:28;;;;;;;28.17;14.67;;;4.70;59.00;;;;;;5022142;28;46393;-68
2023/10/18 06:29:08;;;;;;;29.50;15.37;;;4.80;59.20;;;;;;5022077;28;46340;-68
2023/10/18 06:31:40;;;;;;;29.87;14.73;;;4.90;58.90;;;;;;5018876;28;46494;-68
2023/10/18 06:34:10;;;;;;;30.65;13.65;;;5.00;58.40;;;;;;5020343;28;46388;-67
2023/10/18 06:36:39;;;;;;;22.53;13.67;;;5.00;58.20;;;;;;5023999;28;46441;-67
2023/10/18 06:39:05;;;;;;;24.67;13.33;;;5.00;58.40;;;;;;5023216;28;46569;-68
2023/10/18 06:41:31;;;;;;;32.70;14.30;;;5.10;58.30;;;;;;5022724;28;46416;-67
2023/10/18 06:43:59;;;;;;;27.03;13.63;;;5.00;58.30;;;;;;5022240;28;46700;-67
2023/10/18 06:46:38;;;;;;;27.90;13.40;;;4.90;58.50;;;;;;5022458;28;46513;-67
2023/10/18 06:49:10;;;;;;;25.20;14.10;;;5.00;58.70;;;;;;5022080;28;46396;-67
2023/10/18 06:51:40;;;;;;;48.33;15.50;;;5.00;58.70;;;;;;5022373;28;46442;-67
2023/10/18 06:54:13;;;;;;;35.27;14.13;;;5.00;58.50;;;;;;5019923;28;46471;-67
2023/10/18 06:56:39;;;;;;;40.47;15.43;;;5.00;58.80;;;;;;5021462;28;46389;-67
2023/10/18 06:59:09;;;;;;;39.60;15.53;;;5.10;58.80;;;;;;5021264;28;46545;-68
2023/10/18 07:01:41;;;;;;;38.37;16.57;;;5.20;58.30;;;;;;5021717;28;47177;-66
2023/10/18 07:04:18;;;;;;;54.73;15.67;;;5.30;58.00;;;;;;5021476;28;45926;-70
2023/10/18 07:06:45;;;;;;;48.63;15.97;;;5.20;58.80;;;;;;5020257;28;46496;-67
2023/10/18 07:09:24;;;;;;;32.07;17.90;;;5.00;59.30;;;;;;5022025;28;46656;-67
2023/10/18 07:11:51;;;;;;;34.20;17.00;;;5.10;59.40;;;;;;5020057;28;46336;-67
2023/10/18 07:14:19;;;;;;;35.87;17.13;;;5.20;58.80;;;;;;5021341;28;46789;-66
2023/10/18 07:16:48;;;;;;;35.33;17.30;;;5.30;58.30;;;;;;5020536;28;46396;-66
2023/10/18 07:19:27;;;;;;;41.93;17.27;;;5.40;58.00;;;;;;5020770;28;46390;-66
2023/10/18 07:21:57;;;;;;;42.23;16.17;;;5.50;57.90;;;;;;5021334;28;46439;-67
2023/10/18 07:24:32;;;;;;;56.23;16.73;;;5.60;57.80;;;;;;5018710;28;46417;-67
2023/10/18 07:26:59;;;;;;;38.63;15.47;;;5.60;57.70;;;;;;5022296;28;46429;-67
2023/10/18 07:29:27;;;;;;;37.90;18.07;;;5.60;57.80;;;;;;5024164;28;46162;-67
2023/10/18 07:31:53;;;;;;;44.10;15.70;;;5.80;57.60;;;;;;5020766;28;48118;-67
2023/10/18 07:34:25;;;;;;;30.17;16.80;;;5.90;57.30;;;;;;5020861;28;46458;-67
2023/10/18 07:36:54;;;;;;;26.47;15.53;;;5.80;57.30;;;;;;5021048;28;45857;-67
2023/10/18 07:39:24;;;;;;;24.17;15.63;;;5.90;57.20;;;;;;5022531;28;46641;-67
2023/10/18 07:41:50;;;;;;;49.77;16.93;;;5.90;56.90;;;;;;5020300;28;46327;-67
2023/10/18 07:44:16;;;;;;;44.07;17.27;;;6.00;56.80;;;;;;5020428;28;46413;-67
2023/10/18 07:46:42;;;;;;;47.30;17.00;;;6.10;56.70;;;;;;5004912;28;46493;-67
2023/10/18 07:49:13;;;;;;;59.93;19.93;;;6.10;56.70;;;;;;5020911;28;46522;-67
2023/10/18 07:51:49;;;;;;;42.63;17.93;;;6.10;56.80;;;;;;5021811;28;47122;-67
2023/10/18 07:54:16;;;;;;;36.23;14.93;;;6.10;56.90;;;;;;5019230;28;46385;-67
2023/10/18 07:56:49;;;;;;;36.47;15.27;;;6.00;57.20;;;;;;5021158;28;46461;-67
2023/10/18 07:59:28;;;;;;;21.67;14.23;;;5.90;57.60;;;;;;5021078;28;46448;-67
2023/10/18 08:02:13;;;;;;;24.67;15.07;;;6.10;57.40;;;;;;5019631;28;46477;-67
2023/10/18 08:04:42;;;;;;;25.70;14.80;;;6.10;57.50;;;;;;5018091;28;46481;-67
2023/10/18 08:07:12;;;;;;;23.70;15.17;;;6.30;57.00;;;;;;5018900;28;45839;-67
2023/10/18 08:09:41;;;;;;;26.63;14.17;;;6.40;56.50;;;;;;5022375;28;46627;-68
2023/10/18 08:12:08;;;;;;;37.27;15.57;;;6.60;56.10;;;;;;5021324;28;47370;-67
2023/10/18 08:14:35;;;;;;;25.00;14.80;;;6.50;56.40;;;;;;5019427;28;46380;-67
2023/10/18 08:17:44;;;;;;;22.43;14.80;;;6.60;56.30;;;;;;5019754;28;46394;-67
2023/10/18 08:19:56;;;;;;;34.87;16.93;;;6.70;56.20;;;;;;5015614;28;46712;-67
2023/10/18 08:22:22;;;;;;;38.43;15.30;;;6.80;56.00;;;;;;5020294;28;46736;-66
2023/10/18 08:24:50;;;;;;;31.30;16.90;;;6.90;55.50;;;;;;5021525;28;46168;-66
2023/10/18 08:27:17;;;;;;;26.03;14.63;;;7.00;55.30;;;;;;5020613;28;46407;-67
2023/10/18 08:29:42;;;;;;;25.63;12.10;;;7.10;55.20;;;;;;5022111;28;46596;-67
2023/10/18 08:32:18;;;;;;;18.73;12.50;;;7.20;55.00;;;;;;5021222;28;47032;-67
2023/10/18 08:34:45;;;;;;;23.80;14.57;;;7.20;55.20;;;;;;5020061;28;46396;-67
2023/10/18 08:37:13;;;;;;;29.40;13.80;;;7.30;55.00;;;;;;5018248;28;45849;-66
2023/10/18 08:39:40;;;;;;;19.13;12.60;;;7.30;55.00;;;;;;5022011;28;46558;-68
2023/10/18 08:42:13;;;;;;;18.40;12.40;;;7.30;55.10;;;;;;5020783;28;48306;-66
2023/10/18 08:44:39;;;;;;;18.77;12.23;;;7.20;54.90;;;;;;5020628;28;46438;-66
2023/10/18 08:49:44;;;;;;;20.33;12.40;;;7.10;55.10;;;;;;5021593;28;46343;-66
2023/10/18 08:52:10;;;;;;;21.57;13.23;;;6.90;55.90;;;;;;5019490;28;48091;-67
2023/10/18 08:54:45;;;;;;;28.73;13.00;;;6.90;54.90;;;;;;5031025;23;46454;-67
2023/10/18 08:57:11;;;;;;;17.27;13.13;;;7.00;56.00;;;;;;5036340;28;46451;-67
2023/10/18 08:59:48;;;;;;;20.20;12.77;;;7.10;55.80;;;;;;5033347;28;46386;-69
2023/10/18 09:02:18;;;;;;;20.07;12.97;;;7.20;55.30;;;;;;5036057;28;48070;-69
2023/10/18 09:04:59;;;;;;;19.70;12.83;;;7.30;54.90;;;;;;5015657;28;46364;-69
2023/10/18 09:07:44;;;;;;;18.87;12.70;;;7.40;54.80;;;;;;5009779;28;46294;-69
2023/10/18 09:15:27;;;;;;;16.60;11.63;;;7.70;54.30;;;;;;5011148;28;46449;-67
2023/10/18 09:17:54;;;;;;;20.33;12.40;;;8.00;53.40;;;;;;5013446;28;46282;-66
2023/10/18 09:20:25;;;;;;;18.30;11.83;;;8.20;53.30;;;;;;5010610;28;45854;-68
2023/10/18 09:22:54;;;;;;;18.67;12.67;;;8.10;53.30;;;;;;5007558;28;47102;-68
2023/10/18 09:25:24;;;;;;;19.63;12.57;;;8.20;53.30;;;;;;5012295;28;46339;-67
2023/10/18 09:27:51;;;;;;;20.40;13.10;;;8.10;53.70;;;;;;5008075;28;46459;-68
2023/10/18 09:30:18;;;;;;;16.57;11.67;;;8.10;53.70;;;;;;5009429;28;46463;-68
2023/10/18 09:32:45;;;;;;;14.80;10.63;;;8.40;52.90;;;;;;5010866;28;46911;-68
2023/10/18 09:35:11;;;;;;;12.33;8.87;;;8.60;52.30;;;;;;5010384;28;46406;-68
2023/10/18 09:37:38;;;;;;;14.20;9.40;;;8.90;51.80;;;;;;5007700;28;46399;-68
2023/10/18 09:40:05;;;;;;;11.37;8.60;;;9.30;52.00;;;;;;5008460;28;46651;-67
2023/10/18 09:42:30;;;;;;;11.20;8.30;;;9.50;48.70;;;;;;5005502;28;46926;-68
2023/10/18 09:44:56;;;;;;;11.90;9.17;;;9.70;48.00;;;;;;5006390;28;46499;-67
2023/10/18 09:47:27;;;;;;;12.47;9.07;;;9.50;47.90;;;;;;5012024;28;46419;-67
2023/10/18 09:49:58;;;;;;;12.47;9.40;;;9.60;47.20;;;;;;5011825;28;46396;-68
2023/10/18 09:52:24;;;;;;;11.37;8.40;;;9.70;46.80;;;;;;4995394;28;47766;-67
2023/10/18 09:54:51;;;;;;;13.10;9.83;;;9.70;44.80;;;;;;5008688;28;46462;-68
2023/10/18 09:57:23;;;;;;;14.30;9.73;;;9.50;44.70;;;;;;4994933;28;46441;-69
2023/10/18 09:59:56;;;;;;;12.77;9.93;;;9.50;44.70;;;;;;5014299;28;46558;-69
2023/10/18 10:02:24;;;;;;;13.07;10.23;;;9.40;45.20;;;;;;5012182;28;47078;-69
2023/10/18 10:04:55;;;;;;;13.83;9.40;;;9.30;45.50;;;;;;5013737;28;46522;-67
2023/10/18 10:10:08;;;;;;;15.83;9.30;;;9.30;46.00;;;;;;5013322;28;46408;-69
2023/10/18 10:12:34;;;;;;;11.03;9.03;;;9.50;45.40;;;;;;5013233;28;46704;-68
2023/10/18 10:15:01;;;;;;;13.03;10.17;;;9.50;45.30;;;;;;5011811;28;46506;-68
2023/10/18 10:17:29;;;;;;;15.00;9.73;;;9.70;44.90;;;;;;5013223;28;46399;-67
2023/10/18 10:20:10;;;;;;;13.50;10.07;;;9.80;44.50;;;;;;5010457;28;45918;-68
2023/10/18 10:22:41;;;;;;;14.20;9.50;;;9.90;45.80;;;;;;5009434;28;46795;-68
2023/10/18 10:25:11;;;;;;;13.23;9.00;;;9.90;44.60;;;;;;5009408;28;46450;-67
2023/10/18 10:33:05;;;;;;;12.63;9.70;;;10.10;42.00;;;;;;5008358;28;46495;-67
2023/10/18 10:35:35;;;;;;;16.20;10.67;;;10.00;43.60;;;;;;5015829;28;46629;-68
2023/10/18 10:38:01;;;;;;;14.40;9.83;;;10.10;42.30;;;;;;5015883;28;46343;-70
2023/10/18 10:43:09;;;;;;;16.13;11.13;;;10.00;42.50;;;;;;5010903;28;46615;-68
2023/10/18 10:45:37;;;;;;;12.87;10.00;;;10.00;43.00;;;;;;5008708;28;46450;-67
2023/10/18 10:48:15;;;;;;;17.10;11.37;;;10.00;43.00;;;;;;5017803;28;46764;-68
2023/10/18 10:50:50;;;;;;;19.13;11.30;;;10.30;42.50;;;;;;5011456;28;46424;-68
2023/10/18 10:53:29;;;;;;;17.73;11.83;;;10.60;41.30;;;;;;5013046;28;46532;-68
2023/10/18 10:55:55;;;;;;;17.00;11.90;;;10.60;41.50;;;;;;5050354;22;46419;-67
2023/10/18 10:58:22;;;;;;;21.70;13.97;;;10.30;43.60;;;;;;5037887;28;46455;-67
2023/10/18 11:01:02;;;;;;;22.67;15.53;;;10.10;42.70;;;;;;5037922;28;46668;-66
2023/10/18 11:03:52;;;;;;;24.00;15.70;;;10.20;42.60;;;;;;5038131;28;48082;-66
2023/10/18 11:06:25;;;;;;;24.20;14.70;;;10.30;42.10;;;;;;5039420;28;46340;-66
2023/10/18 11:08:54;;;;;;;25.70;16.37;;;10.40;41.60;;;;;;5039180;28;46715;-64
2023/10/18 11:11:21;;;;;;;30.17;17.73;;;10.70;41.10;;;;;;5022770;28;46397;-67
2023/10/18 11:13:48;;;;;;;25.90;16.87;;;10.60;41.30;;;;;;5042867;28;46390;-67
2023/10/18 11:16:17;;;;;;;27.03;17.27;;;10.50;41.60;;;;;;5041702;28;46530;-65
2023/10/18 11:18:48;;;;;;;24.70;15.60;;;10.30;42.30;;;;;;5040800;28;46355;-66
2023/10/18 11:21:28;;;;;;;21.27;14.80;;;10.40;42.00;;;;;;5036166;28;46566;-68
2023/10/18 11:24:04;;;;;;;22.70;16.00;;;10.40;41.60;;;;;;5040688;28;46444;-67
2023/10/18 11:26:38;;;;;;;21.07;14.60;;;10.40;41.30;;;;;;5040384;28;45816;-66
2023/10/18 11:29:05;;;;;;;21.90;14.60;;;10.50;41.30;;;;;;5042553;28;46656;-66
2023/10/18 11:31:31;;;;;;;22.83;15.33;;;10.50;41.80;;;;;;5040168;28;46412;-66
2023/10/18 11:34:07;;;;;;;22.93;14.67;;;10.60;41.60;;;;;;5037666;28;46307;-66
2023/10/18 11:36:34;;;;;;;21.50;15.60;;;10.90;40.50;;;;;;5037148;28;46494;-67
2023/10/18 11:39:18;;;;;;;22.07;13.73;;;10.80;40.20;;;;;;5041187;28;46471;-67
2023/10/18 11:41:46;;;;;;;23.20;13.90;;;10.90;39.90;;;;;;5040195;28;46453;-66
2023/10/18 11:44:26;;;;;;;20.90;13.77;;;11.40;39.70;;;;;;5039251;28;46718;-67
2023/10/18 11:46:58;;;;;;;25.40;14.63;;;11.60;38.60;;;;;;5020157;28;46693;-66
2023/10/18 11:49:35;;;;;;;25.40;16.17;;;11.70;38.30;;;;;;5042164;28;46406;-67
2023/10/18 11:52:01;;;;;;;23.80;15.70;;;11.80;38.60;;;;;;5042355;28;46605;-66
2023/10/18 11:54:35;;;;;;;21.77;15.70;;;11.70;39.00;;;;;;5041591;28;46421;-66
2023/10/18 11:57:05;;;;;;;24.10;15.97;;;11.80;38.60;;;;;;5023144;28;46548;-65
2023/10/18 11:59:51;;;;;;;26.87;17.60;;;11.90;38.20;;;;;;5039949;28;46411;-67
2023/10/18 12:02:16;;;;;;;22.03;16.10;;;12.20;37.90;;;;;;5040744;28;46403;-67
2023/10/18 12:04:44;;;;;;;28.37;17.23;;;12.20;37.30;;;;;;5039647;28;47321;-67
2023/10/18 12:07:13;;;;;;;26.20;17.13;;;12.20;37.70;;;;;;5022972;28;46883;-68
2023/10/18 12:09:46;;;;;;;28.50;17.70;;;12.10;37.90;;;;;;5040767;28;45775;-67
2023/10/18 12:12:13;;;;;;;24.73;16.93;;;11.90;37.40;;;;;;5039712;28;46469;-66
2023/10/18 12:14:45;;;;;;;25.20;16.83;;;11.90;38.00;;;;;;5039206;28;47912;-67
2023/10/18 12:17:14;;;;;;;24.27;16.07;;;11.80;37.90;;;;;;5041784;28;46393;-68
2023/10/18 12:19:40;;;;;;;25.53;15.73;;;11.80;37.70;;;;;;5041498;28;46527;-67
2023/10/18 12:22:09;;;;;;;23.57;16.47;;;11.90;37.60;;;;;;5043968;28;46404;-69
2023/10/18 12:24:35;;;;;;;26.97;16.20;;;12.00;37.60;;;;;;5040523;28;46362;-71
2023/10/18 12:27:15;;;;;;;24.60;16.90;;;12.10;37.40;;;;;;5035105;28;46680;-68
2023/10/18 12:29:43;;;;;;;28.33;17.30;;;12.20;37.20;;;;;;5044190;28;46481;-66
2023/10/18 12:32:27;;;;;;;24.30;17.03;;;12.50;37.00;;;;;;5040790;28;46440;-66
2023/10/18 12:34:56;;;;;;;23.83;17.47;;;12.70;36.50;;;;;;5040482;28;46627;-66
2023/10/18 12:37:24;;;;;;;25.60;17.77;;;12.70;36.30;;;;;;5038857;28;45819;-68
2023/10/18 12:39:50;;;;;;;25.20;17.30;;;12.80;36.50;;;;;;5034843;28;46489;-65
2023/10/18 12:42:19;;;;;;;24.20;17.10;;;12.90;35.80;;;;;;5039207;28;46478;-66
2023/10/18 12:44:46;;;;;;;24.53;16.83;;;13.00;35.50;;;;;;5035454;28;46476;-65
2023/10/18 12:47:19;;;;;;;23.17;16.43;;;13.10;35.40;;;;;;5040202;28;46397;-67
2023/10/18 12:49:50;;;;;;;23.50;15.37;;;13.30;34.90;;;;;;5039242;28;46410;-67
2023/10/18 12:56:18;;;;;;;26.00;16.33;;;13.40;34.50;;;;;;5038189;28;46879;-70
2023/10/18 12:57:56;;;;;;;24.93;16.60;;;13.50;33.90;;;;;;5016346;28;46878;-67
2023/10/18 13:00:25;;;;;;;22.00;16.67;;;13.60;33.70;;;;;;5035997;28;46280;-67
2023/10/18 13:05:23;;;;;;;25.23;17.30;;;13.60;33.20;;;;;;5036957;28;46248;-67
2023/10/18 13:07:54;;;;;;;24.30;16.77;;;13.60;33.50;;;;;;5041481;28;46517;-67
2023/10/18 13:10:29;;;;;;;23.97;15.30;;;13.70;33.30;;;;;;5040105;28;46516;-70
2023/10/18 13:12:55;;;;;;;24.20;16.77;;;13.60;32.60;;;;;;5038647;28;46659;-68
2023/10/18 13:15:25;;;;;;;23.30;16.10;;;13.40;33.40;;;;;;5035387;28;46625;-67
2023/10/18 13:17:51;;;;;;;19.13;13.93;;;13.40;32.50;;;;;;5017978;28;46605;-68
2023/10/18 13:20:24;;;;;;;23.87;14.70;;;13.40;32.50;;;;;;5039752;28;46500;-67
2023/10/18 13:22:55;;;;;;;21.23;14.07;;;13.60;32.30;;;;;;5040804;28;46728;-69
2023/10/18 13:25:51;;;;;;;20.27;14.47;;;13.80;32.00;;;;;;5041944;28;46418;-67
2023/10/18 13:28:33;;;;;;;20.30;12.93;;;13.90;31.70;;;;;;5042461;28;46429;-71
2023/10/18 13:31:07;;;;;;;18.93;12.70;;;13.90;31.60;;;;;;5043557;28;46384;-68
2023/10/18 13:33:38;;;;;;;17.80;13.30;;;13.90;30.90;;;;;;5043658;28;45838;-67
2023/10/18 13:36:09;;;;;;;20.13;13.87;;;13.90;31.10;;;;;;5042205;28;47162;-67
2023/10/18 13:38:36;;;;;;;19.23;12.70;;;13.90;31.00;;;;;;5043505;28;46376;-68
2023/10/18 13:41:01;;;;;;;20.87;12.17;;;13.90;32.00;;;;;;5042555;28;46439;-67